sensor_id;sensor_type;location;lat;lon;timestamp;P1;durP1;ratioP1;P2;durP2;ratioP2
59571;SDS011;59406;45.602;11.904;2023-03-13T00:00:54;18.88;;;11.23;;
59571;SDS011;59406;45.602;11.904;2023-03-13T00:03:21;18.27;;;11.23;;
59571;SDS011;59406;45.602;11.904;2023-03-13T00:05:47;20.00;;;11.93;;
59571;SDS011;59406;45.602;11.904;2023-03-13T00:08:12;20.27;;;10.40;;
59571;SDS011;59406;45.602;11.904;2023-03-13T00:10:39;22.30;;;12.15;;
59571;SDS011;59406;45.602;11.904;2023-03-13T00:13:08;17.92;;;10.55;;
59571;SDS011;59406;45.602;11.904;2023-03-13T00:15:34;29.77;;;15.02;;
59571;SDS011;59406;45.602;11.904;2023-03-13T00:18:00;24.87;;;13.97;;
59571;SDS011;59406;45.602;11.904;2023-03-13T00:20:26;18.13;;;9.98;;
59571;SDS011;59406;45.602;11.904;2023-03-13T00:22:52;24.92;;;13.90;;
59571;SDS011;59406;45.602;11.904;2023-03-13T00:25:17;28.93;;;14.40;;
59571;SDS011;59406;45.602;11.904;2023-03-13T00:27:43;24.00;;;13.23;;
59571;SDS011;59406;45.602;11.904;2023-03-13T00:30:09;19.07;;;12.00;;
59571;SDS011;59406;45.602;11.904;2023-03-13T00:32:42;24.20;;;14.35;;
59571;SDS011;59406;45.602;11.904;2023-03-13T00:35:10;18.00;;;11.32;;
59571;SDS011;59406;45.602;11.904;2023-03-13T00:37:37;20.77;;;11.40;;
59571;SDS011;59406;45.602;11.904;2023-03-13T00:40:03;20.30;;;10.83;;
59571;SDS011;59406;45.602;11.904;2023-03-13T00:42:31;22.85;;;12.48;;
59571;SDS011;59406;45.602;11.904;2023-03-13T00:44:56;19.50;;;12.45;;
59571;SDS011;59406;45.602;11.904;2023-03-13T00:47:22;22.10;;;13.10;;
59571;SDS011;59406;45.602;11.904;2023-03-13T00:49:48;20.65;;;14.52;;
59571;SDS011;59406;45.602;11.904;2023-03-13T00:52:14;27.30;;;16.60;;
59571;SDS011;59406;45.602;11.904;2023-03-13T00:54:40;20.50;;;12.82;;
59571;SDS011;59406;45.602;11.904;2023-03-13T00:57:07;16.93;;;10.03;;
59571;SDS011;59406;45.602;11.904;2023-03-13T00:59:33;22.23;;;13.32;;
59571;SDS011;59406;45.602;11.904;2023-03-13T01:01:59;24.25;;;12.70;;
59571;SDS011;59406;45.602;11.904;2023-03-13T01:04:25;24.65;;;13.55;;
59571;SDS011;59406;45.602;11.904;2023-03-13T01:06:51;18.60;;;9.90;;
59571;SDS011;59406;45.602;11.904;2023-03-13T01:09:17;16.08;;;10.45;;
59571;SDS011;59406;45.602;11.904;2023-03-13T01:11:44;19.13;;;11.32;;
59571;SDS011;59406;45.602;11.904;2023-03-13T01:14:12;17.17;;;10.77;;
59571;SDS011;59406;45.602;11.904;2023-03-13T01:16:42;25.70;;;14.40;;
59571;SDS011;59406;45.602;11.904;2023-03-13T01:19:10;26.00;;;16.25;;
59571;SDS011;59406;45.602;11.904;2023-03-13T01:21:37;24.30;;;15.02;;
59571;SDS011;59406;45.602;11.904;2023-03-13T01:24:04;21.08;;;14.82;;
59571;SDS011;59406;45.602;11.904;2023-03-13T01:26:30;18.48;;;11.35;;
59571;SDS011;59406;45.602;11.904;2023-03-13T01:28:56;21.00;;;11.90;;
59571;SDS011;59406;45.602;11.904;2023-03-13T01:31:28;21.23;;;13.32;;
59571;SDS011;59406;45.602;11.904;2023-03-13T01:33:57;21.88;;;14.23;;
59571;SDS011;59406;45.602;11.904;2023-03-13T01:36:24;20.42;;;12.18;;
59571;SDS011;59406;45.602;11.904;2023-03-13T01:38:52;18.42;;;12.95;;
59571;SDS011;59406;45.602;11.904;2023-03-13T01:41:20;21.63;;;13.10;;
59571;SDS011;59406;45.602;11.904;2023-03-13T01:43:47;26.25;;;14.05;;
59571;SDS011;59406;45.602;11.904;2023-03-13T01:46:14;21.02;;;14.10;;
59571;SDS011;59406;45.602;11.904;2023-03-13T01:48:44;25.58;;;15.52;;
59571;SDS011;59406;45.602;11.904;2023-03-13T01:51:43;31.13;;;17.70;;
59571;SDS011;59406;45.602;11.904;2023-03-13T01:54:41;20.73;;;12.47;;
59571;SDS011;59406;45.602;11.904;2023-03-13T01:57:12;20.00;;;11.30;;
59571;SDS011;59406;45.602;11.904;2023-03-13T01:59:44;23.67;;;14.65;;
59571;SDS011;59406;45.602;11.904;2023-03-13T02:02:13;21.15;;;11.82;;
59571;SDS011;59406;45.602;11.904;2023-03-13T02:04:44;19.13;;;10.68;;
59571;SDS011;59406;45.602;11.904;2023-03-13T02:07:14;18.17;;;10.50;;
59571;SDS011;59406;45.602;11.904;2023-03-13T02:09:45;23.98;;;13.80;;
59571;SDS011;59406;45.602;11.904;2023-03-13T02:12:49;17.35;;;10.25;;
59571;SDS011;59406;45.602;11.904;2023-03-13T02:15:13;27.38;;;17.13;;
59571;SDS011;59406;45.602;11.904;2023-03-13T02:17:41;21.70;;;13.13;;
59571;SDS011;59406;45.602;11.904;2023-03-13T02:20:09;20.50;;;11.73;;
59571;SDS011;59406;45.602;11.904;2023-03-13T02:27:54;23.23;;;13.95;;
59571;SDS011;59406;45.602;11.904;2023-03-13T02:30:24;24.17;;;13.75;;
59571;SDS011;59406;45.602;11.904;2023-03-13T02:32:51;23.33;;;13.40;;
59571;SDS011;59406;45.602;11.904;2023-03-13T02:35:17;20.83;;;11.48;;
59571;SDS011;59406;45.602;11.904;2023-03-13T02:37:50;16.45;;;10.02;;
59571;SDS011;59406;45.602;11.904;2023-03-13T02:40:21;20.52;;;12.15;;
59571;SDS011;59406;45.602;11.904;2023-03-13T02:42:51;19.10;;;10.00;;
59571;SDS011;59406;45.602;11.904;2023-03-13T02:45:18;16.42;;;10.13;;
59571;SDS011;59406;45.602;11.904;2023-03-13T02:47:44;19.08;;;12.27;;
59571;SDS011;59406;45.602;11.904;2023-03-13T02:50:11;17.58;;;10.93;;
59571;SDS011;59406;45.602;11.904;2023-03-13T02:53:11;17.38;;;10.13;;
59571;SDS011;59406;45.602;11.904;2023-03-13T02:55:33;15.23;;;9.30;;
59571;SDS011;59406;45.602;11.904;2023-03-13T02:58:03;15.13;;;8.68;;
59571;SDS011;59406;45.602;11.904;2023-03-13T03:00:29;14.73;;;8.35;;
59571;SDS011;59406;45.602;11.904;2023-03-13T03:02:55;14.13;;;9.63;;
59571;SDS011;59406;45.602;11.904;2023-03-13T03:05:21;16.27;;;7.93;;
59571;SDS011;59406;45.602;11.904;2023-03-13T03:07:48;14.48;;;8.70;;
59571;SDS011;59406;45.602;11.904;2023-03-13T03:10:16;19.25;;;12.63;;
59571;SDS011;59406;45.602;11.904;2023-03-13T03:12:42;18.13;;;10.10;;
59571;SDS011;59406;45.602;11.904;2023-03-13T03:15:09;16.48;;;9.73;;
59571;SDS011;59406;45.602;11.904;2023-03-13T03:17:35;18.50;;;10.63;;
59571;SDS011;59406;45.602;11.904;2023-03-13T03:20:02;16.92;;;10.13;;
59571;SDS011;59406;45.602;11.904;2023-03-13T03:22:32;23.52;;;14.07;;
59571;SDS011;59406;45.602;11.904;2023-03-13T03:24:58;22.92;;;12.68;;
59571;SDS011;59406;45.602;11.904;2023-03-13T03:27:24;24.52;;;14.45;;
59571;SDS011;59406;45.602;11.904;2023-03-13T03:29:50;17.50;;;10.73;;
59571;SDS011;59406;45.602;11.904;2023-03-13T03:32:16;16.30;;;9.48;;
59571;SDS011;59406;45.602;11.904;2023-03-13T03:34:42;15.20;;;8.93;;
59571;SDS011;59406;45.602;11.904;2023-03-13T03:37:08;16.27;;;9.60;;
59571;SDS011;59406;45.602;11.904;2023-03-13T03:39:34;16.70;;;9.40;;
59571;SDS011;59406;45.602;11.904;2023-03-13T03:42:00;13.15;;;8.10;;
59571;SDS011;59406;45.602;11.904;2023-03-13T03:44:26;15.05;;;9.63;;
59571;SDS011;59406;45.602;11.904;2023-03-13T03:46:52;17.30;;;9.57;;
59571;SDS011;59406;45.602;11.904;2023-03-13T03:49:18;14.10;;;8.68;;
59571;SDS011;59406;45.602;11.904;2023-03-13T03:51:44;14.40;;;8.75;;
59571;SDS011;59406;45.602;11.904;2023-03-13T03:54:10;14.27;;;8.97;;
59571;SDS011;59406;45.602;11.904;2023-03-13T03:56:36;17.53;;;9.73;;
59571;SDS011;59406;45.602;11.904;2023-03-13T03:59:02;14.38;;;8.95;;
59571;SDS011;59406;45.602;11.904;2023-03-13T04:01:28;17.77;;;10.65;;
59571;SDS011;59406;45.602;11.904;2023-03-13T04:03:54;17.40;;;10.00;;
59571;SDS011;59406;45.602;11.904;2023-03-13T04:06:20;16.33;;;9.55;;
59571;SDS011;59406;45.602;11.904;2023-03-13T04:08:46;16.67;;;10.13;;
59571;SDS011;59406;45.602;11.904;2023-03-13T04:11:12;14.50;;;8.82;;
59571;SDS011;59406;45.602;11.904;2023-03-13T04:13:38;15.27;;;9.97;;
59571;SDS011;59406;45.602;11.904;2023-03-13T04:16:07;16.60;;;9.65;;
59571;SDS011;59406;45.602;11.904;2023-03-13T04:18:33;14.05;;;8.20;;
59571;SDS011;59406;45.602;11.904;2023-03-13T04:21:00;14.60;;;7.93;;
59571;SDS011;59406;45.602;11.904;2023-03-13T04:23:27;14.25;;;8.68;;
59571;SDS011;59406;45.602;11.904;2023-03-13T04:25:53;14.87;;;8.43;;
59571;SDS011;59406;45.602;11.904;2023-03-13T04:28:19;15.60;;;9.93;;
59571;SDS011;59406;45.602;11.904;2023-03-13T04:30:45;16.10;;;9.23;;
59571;SDS011;59406;45.602;11.904;2023-03-13T04:33:11;13.02;;;7.63;;
59571;SDS011;59406;45.602;11.904;2023-03-13T04:35:37;15.40;;;9.40;;
59571;SDS011;59406;45.602;11.904;2023-03-13T04:38:03;17.33;;;10.32;;
59571;SDS011;59406;45.602;11.904;2023-03-13T04:40:29;17.85;;;10.43;;
59571;SDS011;59406;45.602;11.904;2023-03-13T04:42:55;20.60;;;11.82;;
59571;SDS011;59406;45.602;11.904;2023-03-13T04:45:20;18.57;;;11.57;;
59571;SDS011;59406;45.602;11.904;2023-03-13T04:47:46;20.63;;;12.05;;
59571;SDS011;59406;45.602;11.904;2023-03-13T04:50:12;17.88;;;10.85;;
59571;SDS011;59406;45.602;11.904;2023-03-13T04:52:38;19.98;;;11.57;;
59571;SDS011;59406;45.602;11.904;2023-03-13T04:55:04;18.13;;;11.30;;
59571;SDS011;59406;45.602;11.904;2023-03-13T04:57:31;16.70;;;10.68;;
59571;SDS011;59406;45.602;11.904;2023-03-13T04:59:57;18.70;;;11.73;;
59571;SDS011;59406;45.602;11.904;2023-03-13T05:02:23;19.23;;;10.88;;
59571;SDS011;59406;45.602;11.904;2023-03-13T05:04:48;17.27;;;11.07;;
59571;SDS011;59406;45.602;11.904;2023-03-13T05:07:14;13.18;;;7.78;;
59571;SDS011;59406;45.602;11.904;2023-03-13T05:09:40;12.48;;;7.03;;
59571;SDS011;59406;45.602;11.904;2023-03-13T05:12:06;13.10;;;7.27;;
59571;SDS011;59406;45.602;11.904;2023-03-13T05:14:32;13.13;;;7.93;;
59571;SDS011;59406;45.602;11.904;2023-03-13T05:16:58;10.80;;;6.85;;
59571;SDS011;59406;45.602;11.904;2023-03-13T05:19:24;15.15;;;9.00;;
59571;SDS011;59406;45.602;11.904;2023-03-13T05:21:50;14.93;;;8.63;;
59571;SDS011;59406;45.602;11.904;2023-03-13T05:24:16;18.90;;;10.38;;
59571;SDS011;59406;45.602;11.904;2023-03-13T05:26:42;18.75;;;11.50;;
59571;SDS011;59406;45.602;11.904;2023-03-13T05:29:08;17.17;;;9.90;;
59571;SDS011;59406;45.602;11.904;2023-03-13T05:31:34;18.10;;;10.80;;
59571;SDS011;59406;45.602;11.904;2023-03-13T05:34:00;16.92;;;9.88;;
59571;SDS011;59406;45.602;11.904;2023-03-13T05:36:26;15.52;;;9.50;;
59571;SDS011;59406;45.602;11.904;2023-03-13T05:38:52;17.92;;;9.48;;
59571;SDS011;59406;45.602;11.904;2023-03-13T05:41:18;14.47;;;8.07;;
59571;SDS011;59406;45.602;11.904;2023-03-13T05:43:44;14.73;;;8.38;;
59571;SDS011;59406;45.602;11.904;2023-03-13T05:46:10;15.88;;;8.82;;
59571;SDS011;59406;45.602;11.904;2023-03-13T05:48:36;14.03;;;7.50;;
59571;SDS011;59406;45.602;11.904;2023-03-13T05:51:02;13.23;;;7.32;;
59571;SDS011;59406;45.602;11.904;2023-03-13T05:53:28;11.68;;;6.93;;
59571;SDS011;59406;45.602;11.904;2023-03-13T05:55:54;11.88;;;7.43;;
59571;SDS011;59406;45.602;11.904;2023-03-13T05:58:20;15.27;;;9.47;;
59571;SDS011;59406;45.602;11.904;2023-03-13T06:00:46;30.58;;;16.30;;
59571;SDS011;59406;45.602;11.904;2023-03-13T06:03:12;24.30;;;14.65;;
59571;SDS011;59406;45.602;11.904;2023-03-13T06:05:39;25.52;;;12.40;;
59571;SDS011;59406;45.602;11.904;2023-03-13T06:08:05;20.23;;;10.38;;
59571;SDS011;59406;45.602;11.904;2023-03-13T06:10:31;16.83;;;8.67;;
59571;SDS011;59406;45.602;11.904;2023-03-13T06:12:57;16.23;;;8.80;;
59571;SDS011;59406;45.602;11.904;2023-03-13T06:15:23;13.13;;;8.23;;
59571;SDS011;59406;45.602;11.904;2023-03-13T06:17:49;15.85;;;8.98;;
59571;SDS011;59406;45.602;11.904;2023-03-13T06:20:15;20.10;;;10.53;;
59571;SDS011;59406;45.602;11.904;2023-03-13T06:22:41;18.77;;;10.80;;
59571;SDS011;59406;45.602;11.904;2023-03-13T06:25:08;16.88;;;8.90;;
59571;SDS011;59406;45.602;11.904;2023-03-13T06:27:34;14.07;;;8.50;;
59571;SDS011;59406;45.602;11.904;2023-03-13T06:30:00;18.13;;;11.30;;
59571;SDS011;59406;45.602;11.904;2023-03-13T06:32:27;18.77;;;11.27;;
59571;SDS011;59406;45.602;11.904;2023-03-13T06:34:53;17.63;;;10.73;;
59571;SDS011;59406;45.602;11.904;2023-03-13T06:37:19;13.98;;;8.68;;
59571;SDS011;59406;45.602;11.904;2023-03-13T06:39:45;17.95;;;9.75;;
59571;SDS011;59406;45.602;11.904;2023-03-13T06:42:11;15.83;;;9.93;;
59571;SDS011;59406;45.602;11.904;2023-03-13T06:44:37;17.90;;;11.20;;
59571;SDS011;59406;45.602;11.904;2023-03-13T06:47:03;17.38;;;10.00;;
59571;SDS011;59406;45.602;11.904;2023-03-13T06:49:29;15.18;;;8.60;;
59571;SDS011;59406;45.602;11.904;2023-03-13T06:51:58;17.92;;;10.32;;
59571;SDS011;59406;45.602;11.904;2023-03-13T06:54:24;18.43;;;10.23;;
59571;SDS011;59406;45.602;11.904;2023-03-13T06:56:51;17.15;;;9.88;;
59571;SDS011;59406;45.602;11.904;2023-03-13T06:59:17;16.83;;;10.50;;
59571;SDS011;59406;45.602;11.904;2023-03-13T07:01:43;14.52;;;8.05;;
59571;SDS011;59406;45.602;11.904;2023-03-13T07:04:11;28.10;;;12.27;;
59571;SDS011;59406;45.602;11.904;2023-03-13T07:06:38;15.98;;;9.82;;
59571;SDS011;59406;45.602;11.904;2023-03-13T07:09:04;17.13;;;10.35;;
59571;SDS011;59406;45.602;11.904;2023-03-13T07:11:30;17.85;;;9.75;;
59571;SDS011;59406;45.602;11.904;2023-03-13T07:13:56;24.37;;;12.00;;
59571;SDS011;59406;45.602;11.904;2023-03-13T07:16:25;19.50;;;11.02;;
59571;SDS011;59406;45.602;11.904;2023-03-13T07:18:52;18.00;;;10.40;;
59571;SDS011;59406;45.602;11.904;2023-03-13T07:21:17;17.65;;;11.00;;
59571;SDS011;59406;45.602;11.904;2023-03-13T07:23:43;20.60;;;10.83;;
59571;SDS011;59406;45.602;11.904;2023-03-13T07:26:10;20.42;;;11.60;;
59571;SDS011;59406;45.602;11.904;2023-03-13T07:28:39;19.33;;;10.60;;
59571;SDS011;59406;45.602;11.904;2023-03-13T07:31:15;15.50;;;9.45;;
59571;SDS011;59406;45.602;11.904;2023-03-13T07:33:43;18.02;;;9.73;;
59571;SDS011;59406;45.602;11.904;2023-03-13T07:36:10;20.10;;;11.00;;
59571;SDS011;59406;45.602;11.904;2023-03-13T07:38:37;18.13;;;9.77;;
59571;SDS011;59406;45.602;11.904;2023-03-13T07:41:03;19.38;;;9.45;;
59571;SDS011;59406;45.602;11.904;2023-03-13T07:43:30;17.85;;;9.68;;
59571;SDS011;59406;45.602;11.904;2023-03-13T07:45:57;20.50;;;11.45;;
59571;SDS011;59406;45.602;11.904;2023-03-13T07:48:28;16.07;;;8.90;;
59571;SDS011;59406;45.602;11.904;2023-03-13T07:50:55;14.52;;;7.90;;
59571;SDS011;59406;45.602;11.904;2023-03-13T07:53:21;15.40;;;9.30;;
59571;SDS011;59406;45.602;11.904;2023-03-13T07:55:54;14.75;;;8.55;;
59571;SDS011;59406;45.602;11.904;2023-03-13T07:58:22;19.98;;;10.73;;
59571;SDS011;59406;45.602;11.904;2023-03-13T08:00:50;16.43;;;9.07;;
59571;SDS011;59406;45.602;11.904;2023-03-13T08:03:16;14.35;;;8.02;;
59571;SDS011;59406;45.602;11.904;2023-03-13T08:05:43;13.48;;;7.85;;
59571;SDS011;59406;45.602;11.904;2023-03-13T08:08:09;12.07;;;7.85;;
59571;SDS011;59406;45.602;11.904;2023-03-13T08:10:35;13.65;;;7.53;;
59571;SDS011;59406;45.602;11.904;2023-03-13T08:13:01;14.47;;;8.77;;
59571;SDS011;59406;45.602;11.904;2023-03-13T08:15:27;14.63;;;8.48;;
59571;SDS011;59406;45.602;11.904;2023-03-13T08:17:54;12.48;;;7.47;;
59571;SDS011;59406;45.602;11.904;2023-03-13T08:20:20;15.50;;;9.50;;
59571;SDS011;59406;45.602;11.904;2023-03-13T08:22:47;14.07;;;7.32;;
59571;SDS011;59406;45.602;11.904;2023-03-13T08:25:15;11.27;;;6.70;;
59571;SDS011;59406;45.602;11.904;2023-03-13T08:27:41;13.15;;;7.88;;
59571;SDS011;59406;45.602;11.904;2023-03-13T08:30:07;13.02;;;7.63;;
59571;SDS011;59406;45.602;11.904;2023-03-13T08:32:36;15.07;;;7.35;;
59571;SDS011;59406;45.602;11.904;2023-03-13T08:35:02;12.30;;;6.00;;
59571;SDS011;59406;45.602;11.904;2023-03-13T08:37:29;9.97;;;5.93;;
59571;SDS011;59406;45.602;11.904;2023-03-13T08:39:55;10.82;;;5.68;;
59571;SDS011;59406;45.602;11.904;2023-03-13T08:42:21;12.00;;;5.78;;
59571;SDS011;59406;45.602;11.904;2023-03-13T08:44:48;11.07;;;6.47;;
59571;SDS011;59406;45.602;11.904;2023-03-13T08:47:14;12.45;;;6.68;;
59571;SDS011;59406;45.602;11.904;2023-03-13T08:49:42;11.10;;;6.60;;
59571;SDS011;59406;45.602;11.904;2023-03-13T08:52:08;9.95;;;6.47;;
59571;SDS011;59406;45.602;11.904;2023-03-13T08:54:35;9.75;;;5.57;;
59571;SDS011;59406;45.602;11.904;2023-03-13T08:57:00;8.38;;;4.65;;
59571;SDS011;59406;45.602;11.904;2023-03-13T08:59:26;11.17;;;5.13;;
59571;SDS011;59406;45.602;11.904;2023-03-13T09:01:52;8.32;;;4.95;;
59571;SDS011;59406;45.602;11.904;2023-03-13T09:04:18;11.93;;;6.10;;
59571;SDS011;59406;45.602;11.904;2023-03-13T09:06:44;9.18;;;5.63;;
59571;SDS011;59406;45.602;11.904;2023-03-13T09:09:10;9.37;;;5.50;;
59571;SDS011;59406;45.602;11.904;2023-03-13T09:11:37;8.95;;;5.30;;
59571;SDS011;59406;45.602;11.904;2023-03-13T09:14:03;9.45;;;5.38;;
59571;SDS011;59406;45.602;11.904;2023-03-13T09:16:30;7.03;;;4.38;;
59571;SDS011;59406;45.602;11.904;2023-03-13T09:18:57;8.87;;;5.23;;
59571;SDS011;59406;45.602;11.904;2023-03-13T09:21:25;8.00;;;4.90;;
59571;SDS011;59406;45.602;11.904;2023-03-13T09:23:55;8.18;;;4.43;;
59571;SDS011;59406;45.602;11.904;2023-03-13T09:26:21;9.52;;;4.18;;
59571;SDS011;59406;45.602;11.904;2023-03-13T09:28:47;8.50;;;4.60;;
59571;SDS011;59406;45.602;11.904;2023-03-13T09:31:18;9.17;;;4.43;;
59571;SDS011;59406;45.602;11.904;2023-03-13T09:33:49;8.57;;;5.22;;
59571;SDS011;59406;45.602;11.904;2023-03-13T09:36:16;8.00;;;4.95;;
59571;SDS011;59406;45.602;11.904;2023-03-13T09:38:43;7.00;;;4.28;;
59571;SDS011;59406;45.602;11.904;2023-03-13T09:49:13;10.60;;;4.95;;
59571;SDS011;59406;45.602;11.904;2023-03-13T09:54:37;8.15;;;4.20;;
59571;SDS011;59406;45.602;11.904;2023-03-13T10:00:13;9.93;;;4.50;;
59571;SDS011;59406;45.602;11.904;2023-03-13T10:03:20;9.02;;;5.20;;
59571;SDS011;59406;45.602;11.904;2023-03-13T10:05:52;7.45;;;4.13;;
59571;SDS011;59406;45.602;11.904;2023-03-13T10:08:22;8.93;;;4.95;;
59571;SDS011;59406;45.602;11.904;2023-03-13T10:19:13;8.45;;;5.22;;
59571;SDS011;59406;45.602;11.904;2023-03-13T10:21:42;9.77;;;4.90;;
59571;SDS011;59406;45.602;11.904;2023-03-13T10:27:08;11.02;;;5.93;;
59571;SDS011;59406;45.602;11.904;2023-03-13T10:29:37;10.00;;;5.75;;
59571;SDS011;59406;45.602;11.904;2023-03-13T10:32:05;8.85;;;5.72;;
59571;SDS011;59406;45.602;11.904;2023-03-13T10:37:16;9.90;;;5.73;;
59571;SDS011;59406;45.602;11.904;2023-03-13T10:39:46;9.15;;;5.10;;
59571;SDS011;59406;45.602;11.904;2023-03-13T10:42:26;6.80;;;4.25;;
59571;SDS011;59406;45.602;11.904;2023-03-13T10:44:58;6.88;;;3.28;;
59571;SDS011;59406;45.602;11.904;2023-03-13T10:47:28;8.52;;;4.03;;
59571;SDS011;59406;45.602;11.904;2023-03-13T10:49:58;7.23;;;3.43;;
59571;SDS011;59406;45.602;11.904;2023-03-13T10:52:34;7.20;;;4.15;;
59571;SDS011;59406;45.602;11.904;2023-03-13T10:55:11;7.35;;;3.45;;
59571;SDS011;59406;45.602;11.904;2023-03-13T10:57:41;10.07;;;4.15;;
59571;SDS011;59406;45.602;11.904;2023-03-13T11:00:39;9.15;;;3.53;;
59571;SDS011;59406;45.602;11.904;2023-03-13T11:03:13;8.80;;;4.70;;
59571;SDS011;59406;45.602;11.904;2023-03-13T11:06:14;7.57;;;4.00;;
59571;SDS011;59406;45.602;11.904;2023-03-13T11:08:47;7.45;;;3.85;;
59571;SDS011;59406;45.602;11.904;2023-03-13T11:11:16;8.63;;;5.07;;
59571;SDS011;59406;45.602;11.904;2023-03-13T11:13:44;9.00;;;5.37;;
59571;SDS011;59406;45.602;11.904;2023-03-13T11:18:42;9.07;;;5.38;;
59571;SDS011;59406;45.602;11.904;2023-03-13T11:21:25;9.73;;;5.55;;
59571;SDS011;59406;45.602;11.904;2023-03-13T11:24:01;7.55;;;5.00;;
59571;SDS011;59406;45.602;11.904;2023-03-13T11:27:03;9.80;;;5.80;;
59571;SDS011;59406;45.602;11.904;2023-03-13T11:35:34;7.07;;;4.72;;
59571;SDS011;59406;45.602;11.904;2023-03-13T11:38:26;7.97;;;4.28;;
59571;SDS011;59406;45.602;11.904;2023-03-13T11:46:37;5.47;;;2.70;;
59571;SDS011;59406;45.602;11.904;2023-03-13T11:54:39;6.40;;;2.60;;
59571;SDS011;59406;45.602;11.904;2023-03-13T12:03:43;5.80;;;2.28;;
59571;SDS011;59406;45.602;11.904;2023-03-13T12:05:46;6.22;;;2.28;;
59571;SDS011;59406;45.602;11.904;2023-03-13T12:11:03;7.10;;;2.42;;
59571;SDS011;59406;45.602;11.904;2023-03-13T12:13:39;7.32;;;2.15;;
59571;SDS011;59406;45.602;11.904;2023-03-13T12:16:09;6.72;;;2.72;;
59571;SDS011;59406;45.602;11.904;2023-03-13T12:18:43;8.88;;;3.15;;
59571;SDS011;59406;45.602;11.904;2023-03-13T12:26:53;6.50;;;3.40;;
59571;SDS011;59406;45.602;11.904;2023-03-13T12:29:39;7.93;;;3.58;;
59571;SDS011;59406;45.602;11.904;2023-03-13T12:32:33;6.47;;;3.28;;
59571;SDS011;59406;45.602;11.904;2023-03-13T12:40:28;6.25;;;3.20;;
59571;SDS011;59406;45.602;11.904;2023-03-13T12:43:09;6.47;;;3.13;;
59571;SDS011;59406;45.602;11.904;2023-03-13T12:45:36;7.35;;;3.70;;
59571;SDS011;59406;45.602;11.904;2023-03-13T12:59:18;5.90;;;3.15;;
59571;SDS011;59406;45.602;11.904;2023-03-13T13:01:50;6.60;;;2.87;;
59571;SDS011;59406;45.602;11.904;2023-03-13T13:04:19;5.55;;;2.70;;
59571;SDS011;59406;45.602;11.904;2023-03-13T13:07:02;4.90;;;2.00;;
59571;SDS011;59406;45.602;11.904;2023-03-13T13:09:31;6.53;;;3.35;;
59571;SDS011;59406;45.602;11.904;2023-03-13T13:12:21;6.47;;;3.28;;
59571;SDS011;59406;45.602;11.904;2023-03-13T13:19:51;8.50;;;3.47;;
59571;SDS011;59406;45.602;11.904;2023-03-13T13:25:24;6.87;;;3.60;;
59571;SDS011;59406;45.602;11.904;2023-03-13T13:28:21;7.03;;;3.50;;
59571;SDS011;59406;45.602;11.904;2023-03-13T13:30:52;7.90;;;3.97;;
59571;SDS011;59406;45.602;11.904;2023-03-13T13:36:36;6.07;;;3.42;;
59571;SDS011;59406;45.602;11.904;2023-03-13T13:38:45;6.47;;;3.90;;
59571;SDS011;59406;45.602;11.904;2023-03-13T13:43:41;7.93;;;4.35;;
59571;SDS011;59406;45.602;11.904;2023-03-13T13:51:32;6.72;;;3.92;;
59571;SDS011;59406;45.602;11.904;2023-03-13T13:54:04;5.93;;;3.63;;
59571;SDS011;59406;45.602;11.904;2023-03-13T13:57:07;8.60;;;3.47;;
59571;SDS011;59406;45.602;11.904;2023-03-13T13:59:39;7.78;;;3.90;;
59571;SDS011;59406;45.602;11.904;2023-03-13T14:02:55;5.83;;;3.30;;
59571;SDS011;59406;45.602;11.904;2023-03-13T14:07:50;6.97;;;3.55;;
59571;SDS011;59406;45.602;11.904;2023-03-13T14:12:51;6.67;;;3.60;;
59571;SDS011;59406;45.602;11.904;2023-03-13T14:15:19;6.23;;;3.30;;
59571;SDS011;59406;45.602;11.904;2023-03-13T14:20:22;7.03;;;3.30;;
59571;SDS011;59406;45.602;11.904;2023-03-13T14:22:58;5.78;;;2.28;;
59571;SDS011;59406;45.602;11.904;2023-03-13T14:25:26;5.72;;;2.92;;
59571;SDS011;59406;45.602;11.904;2023-03-13T14:27:53;6.80;;;3.93;;
59571;SDS011;59406;45.602;11.904;2023-03-13T14:30:20;7.13;;;3.10;;
59571;SDS011;59406;45.602;11.904;2023-03-13T14:32:47;6.50;;;3.55;;
59571;SDS011;59406;45.602;11.904;2023-03-13T14:35:16;6.63;;;3.60;;
59571;SDS011;59406;45.602;11.904;2023-03-13T14:37:51;6.75;;;3.50;;
59571;SDS011;59406;45.602;11.904;2023-03-13T14:40:26;7.13;;;3.43;;
59571;SDS011;59406;45.602;11.904;2023-03-13T14:42:55;4.82;;;2.50;;
59571;SDS011;59406;45.602;11.904;2023-03-13T14:48:03;8.30;;;3.13;;
59571;SDS011;59406;45.602;11.904;2023-03-13T14:50:38;5.65;;;3.05;;
59571;SDS011;59406;45.602;11.904;2023-03-13T14:53:10;4.70;;;2.40;;
59571;SDS011;59406;45.602;11.904;2023-03-13T14:55:40;9.85;;;4.05;;
59571;SDS011;59406;45.602;11.904;2023-03-13T15:00:44;6.55;;;3.00;;
59571;SDS011;59406;45.602;11.904;2023-03-13T15:11:53;7.28;;;3.55;;
59571;SDS011;59406;45.602;11.904;2023-03-13T15:14:31;9.07;;;3.80;;
59571;SDS011;59406;45.602;11.904;2023-03-13T15:17:02;6.50;;;3.10;;
59571;SDS011;59406;45.602;11.904;2023-03-13T15:19:29;7.90;;;2.90;;
59571;SDS011;59406;45.602;11.904;2023-03-13T15:21:56;7.60;;;3.88;;
59571;SDS011;59406;45.602;11.904;2023-03-13T15:24:22;9.63;;;3.80;;
59571;SDS011;59406;45.602;11.904;2023-03-13T15:26:48;10.82;;;4.10;;
59571;SDS011;59406;45.602;11.904;2023-03-13T15:29:14;7.57;;;4.00;;
59571;SDS011;59406;45.602;11.904;2023-03-13T15:31:42;8.38;;;4.15;;
59571;SDS011;59406;45.602;11.904;2023-03-13T15:34:12;8.00;;;3.92;;
59571;SDS011;59406;45.602;11.904;2023-03-13T15:36:38;8.38;;;4.10;;
59571;SDS011;59406;45.602;11.904;2023-03-13T15:39:12;12.57;;;3.90;;
59571;SDS011;59406;45.602;11.904;2023-03-13T15:41:44;8.87;;;3.50;;
59571;SDS011;59406;45.602;11.904;2023-03-13T15:44:10;7.63;;;2.88;;
59571;SDS011;59406;45.602;11.904;2023-03-13T15:46:35;8.18;;;3.10;;
59571;SDS011;59406;45.602;11.904;2023-03-13T15:49:01;7.10;;;3.60;;
59571;SDS011;59406;45.602;11.904;2023-03-13T15:51:28;9.75;;;3.42;;
59571;SDS011;59406;45.602;11.904;2023-03-13T15:53:55;7.63;;;2.83;;
59571;SDS011;59406;45.602;11.904;2023-03-13T15:56:21;8.18;;;2.83;;
59571;SDS011;59406;45.602;11.904;2023-03-13T15:58:47;7.30;;;3.28;;
59571;SDS011;59406;45.602;11.904;2023-03-13T16:01:14;10.27;;;3.27;;
59571;SDS011;59406;45.602;11.904;2023-03-13T16:03:41;9.32;;;3.47;;
59571;SDS011;59406;45.602;11.904;2023-03-13T16:06:15;9.43;;;2.28;;
59571;SDS011;59406;45.602;11.904;2023-03-13T16:08:52;8.70;;;2.08;;
59571;SDS011;59406;45.602;11.904;2023-03-13T16:11:18;8.47;;;2.37;;
59571;SDS011;59406;45.602;11.904;2023-03-13T16:13:44;5.60;;;1.65;;
59571;SDS011;59406;45.602;11.904;2023-03-13T16:16:20;5.55;;;1.85;;
59571;SDS011;59406;45.602;11.904;2023-03-13T16:18:48;8.07;;;1.80;;
59571;SDS011;59406;45.602;11.904;2023-03-13T16:21:18;7.38;;;1.95;;
59571;SDS011;59406;45.602;11.904;2023-03-13T16:23:50;7.80;;;2.20;;
59571;SDS011;59406;45.602;11.904;2023-03-13T16:26:17;6.85;;;2.05;;
59571;SDS011;59406;45.602;11.904;2023-03-13T16:28:45;7.82;;;2.35;;
59571;SDS011;59406;45.602;11.904;2023-03-13T16:31:32;7.47;;;1.80;;
59571;SDS011;59406;45.602;11.904;2023-03-13T16:33:58;6.85;;;1.70;;
59571;SDS011;59406;45.602;11.904;2023-03-13T16:36:26;8.67;;;2.30;;